»·PEaware :: DAL1613 KLAX-KPDX

DAL1613 :: KLAX-KPDX

FLIGHT INFORMATION

Flight Status: Arrived
Operator:
Delta Air Lines
More flights by this operator :: More flights under this callsign
Pilot: Clay B. (17061)
Aircraft: AIRBUS A320
(A320)
More flights by this aircraft type
Origin: KLAX Los Angeles Intl
United States
Destination: KPDX Portland Intl
United States
More flights between these airports :: More routes between these airports
Route: LADYJ3 CSTRO DUCKE LMT MOXEE TMBRS2
File this flight plan on PilotEdge
Remarks: PBN / A1B1C1D1O1S1 DOF / 180108 REG / N321SB EET / KZOA0020 KZSE0100 OPR / DAL PER / C RMK / TCAS SIMBRIEF
Altitude:
(Current/Filed)
34,000ft
Speed:
(Current/Filed)
442kts
Departed: 08-Jan-18 02:19 PM
Arrived: 08-Jan-18 04:03 PM
Distance/Time
Traveled:
725nm/1:44
Distance/Time
To Go:
Arrived

Flight Plot

Page will automatically refresh every two minutes.

Flight plan parsing failed; only flown route is shown


Map Options




Map Legend


Flown Route
Filed Route
Departure Airport
Arrival Airport
Navaid (VOR, NDB)
Fix

Horizontal Profiles

Position Reports

Time Latitude Longitude Heading Altitude Ground
Speed
08-Jan-18 14:00 33.946732 -118.401667 81 116ft 0kts
08-Jan-18 14:01 33.946732 -118.401667 81 116ft 0kts
08-Jan-18 14:02 33.946732 -118.401667 81 116ft 0kts
08-Jan-18 14:03 33.946732 -118.401667 81 116ft 0kts
08-Jan-18 14:04 33.946732 -118.401667 81 116ft 0kts
08-Jan-18 14:05 33.946732 -118.401667 81 116ft 0kts
08-Jan-18 14:06 33.946732 -118.401667 81 116ft 0kts
08-Jan-18 14:07 33.946732 -118.401667 81 116ft 0kts
08-Jan-18 14:08 33.946732 -118.401667 81 116ft 0kts
08-Jan-18 14:09 33.946732 -118.401667 81 116ft 0kts
08-Jan-18 14:10 33.946732 -118.401667 81 116ft 0kts
08-Jan-18 14:11 33.946732 -118.401667 81 116ft 0kts
08-Jan-18 14:12 33.946732 -118.401667 81 116ft 0kts
08-Jan-18 14:13 33.946732 -118.401667 81 116ft 0kts
08-Jan-18 14:14 33.946732 -118.401667 81 116ft 0kts
08-Jan-18 14:15 33.946732 -118.401667 81 116ft 0kts
08-Jan-18 14:16 33.946732 -118.401667 81 116ft 0kts
08-Jan-18 14:17 33.946732 -118.401667 81 116ft 0kts
08-Jan-18 14:18 33.946662 -118.402279 81 117ft 2kts
08-Jan-18 14:19 33.946501 -118.402473 353 117ft 0kts
08-Jan-18 14:20 33.946502 -118.402474 353 116ft 0kts
08-Jan-18 14:21 33.947085 -118.402551 354 116ft 7kts
08-Jan-18 14:22 33.948964 -118.402609 58 116ft 6kts
08-Jan-18 14:23 33.949186 -118.401872 46 116ft 0kts
08-Jan-18 14:24 33.949630 -118.401732 1 116ft 7kts
08-Jan-18 14:25 33.949572 -118.407666 264 120ft 85kts
08-Jan-18 14:26 33.944706 -118.452571 263 1390ft 166kts
08-Jan-18 14:27 33.941229 -118.518700 265 2223ft 248kts
08-Jan-18 14:28 33.935402 -118.606261 275 4834ft 274kts
08-Jan-18 14:29 33.984205 -118.668624 326 7628ft 279kts
08-Jan-18 14:30 34.054110 -118.677386 11 7992ft 274kts
08-Jan-18 14:31 34.127437 -118.660708 15 10126ft 285kts
08-Jan-18 14:32 34.216857 -118.638991 15 10626ft 376kts
08-Jan-18 14:33 34.330337 -118.652169 348 11952ft 437kts
08-Jan-18 14:34 34.445087 -118.692056 327 14513ft 440kts
08-Jan-18 14:35 34.557270 -118.753632 331 16807ft 456kts
08-Jan-18 14:36 34.674744 -118.816548 331 18838ft 471kts
08-Jan-18 14:37 34.795689 -118.881484 331 20645ft 485kts
08-Jan-18 14:38 34.920608 -118.948769 331 22306ft 498kts
08-Jan-18 14:39 35.047270 -119.017218 331 23883ft 508kts
08-Jan-18 14:40 35.169604 -119.083475 331 25374ft 511kts
08-Jan-18 14:41 35.298593 -119.153648 330 27044ft 509kts
08-Jan-18 14:42 35.426899 -119.223705 330 28581ft 507kts
08-Jan-18 14:43 35.561805 -119.275340 338 29930ft 512kts
08-Jan-18 14:44 35.697703 -119.323396 338 31063ft 513kts
08-Jan-18 14:45 35.833991 -119.371183 338 32041ft 516kts
08-Jan-18 14:46 35.971630 -119.418645 338 32986ft 516kts
08-Jan-18 14:47 36.106398 -119.465239 340 33911ft 508kts
08-Jan-18 14:48 36.239627 -119.511417 340 33890ft 511kts
08-Jan-18 14:49 36.375349 -119.558686 340 33886ft 512kts
08-Jan-18 14:50 36.511456 -119.606260 340 33886ft 512kts
08-Jan-18 14:51 36.644837 -119.653052 340 33887ft 511kts
08-Jan-18 14:52 36.779143 -119.700449 339 33888ft 511kts
08-Jan-18 14:53 36.915538 -119.748655 339 33889ft 511kts
08-Jan-18 14:54 37.051363 -119.796827 339 33890ft 511kts
08-Jan-18 14:55 37.181479 -119.843094 339 33886ft 511kts
08-Jan-18 14:56 37.317098 -119.891540 339 33886ft 511kts
08-Jan-18 14:57 37.452839 -119.940242 341 33867ft 511kts
08-Jan-18 14:58 37.587233 -119.988592 339 33861ft 511kts
08-Jan-18 14:59 37.722584 -120.037503 339 33914ft 512kts
08-Jan-18 15:00 37.858636 -120.086850 339 33915ft 511kts
08-Jan-18 15:01 37.994575 -120.135829 340 33916ft 511kts
08-Jan-18 15:02 38.127213 -120.183583 340 33910ft 511kts
08-Jan-18 15:03 38.262183 -120.232335 340 33912ft 512kts
08-Jan-18 15:04 38.398423 -120.281780 340 33913ft 511kts
08-Jan-18 15:05 38.534236 -120.331265 340 33914ft 511kts
08-Jan-18 15:06 38.669682 -120.380812 340 33915ft 512kts
08-Jan-18 15:07 38.804467 -120.430307 339 33859ft 510kts
08-Jan-18 15:08 38.940177 -120.480343 339 33919ft 511kts
08-Jan-18 15:09 39.075818 -120.530549 339 33890ft 511kts
08-Jan-18 15:10 39.206629 -120.579106 339 33887ft 511kts
08-Jan-18 15:11 39.319217 -120.621091 339 33885ft 511kts
08-Jan-18 15:12 39.472190 -120.678486 338 33888ft 510kts
08-Jan-18 15:13 39.584815 -120.720838 338 33887ft 510kts
08-Jan-18 15:14 39.742876 -120.780502 338 33888ft 510kts
08-Jan-18 15:15 39.855178 -120.823064 338 33889ft 510kts
08-Jan-18 15:16 40.012952 -120.883109 338 33890ft 509kts
08-Jan-18 15:17 40.120113 -120.924049 338 33883ft 509kts
08-Jan-18 15:18 40.253813 -120.975280 338 33883ft 507kts
08-Jan-18 15:19 40.387863 -121.026901 338 33887ft 506kts
08-Jan-18 15:20 40.521818 -121.078695 338 33888ft 504kts
08-Jan-18 15:21 40.655297 -121.130533 338 33888ft 505kts
08-Jan-18 15:22 40.788830 -121.182604 338 33888ft 504kts
08-Jan-18 15:23 40.922656 -121.234991 337 33834ft 504kts
08-Jan-18 15:24 41.054100 -121.286721 338 33835ft 503kts
08-Jan-18 15:25 41.180268 -121.336446 338 33832ft 501kts
08-Jan-18 15:26 41.313128 -121.389127 338 33832ft 503kts
08-Jan-18 15:27 41.446027 -121.442046 338 33808ft 502kts
08-Jan-18 15:28 41.579243 -121.495318 338 33804ft 503kts
08-Jan-18 15:29 41.711977 -121.548627 338 33806ft 502kts
08-Jan-18 15:30 41.844736 -121.602174 337 33807ft 502kts
08-Jan-18 15:31 41.974130 -121.654597 337 33809ft 501kts
08-Jan-18 15:32 42.103654 -121.707407 337 33808ft 501kts
08-Jan-18 15:33 42.229800 -121.766020 333 33808ft 497kts
08-Jan-18 15:34 42.357864 -121.830420 333 33806ft 497kts
08-Jan-18 15:35 42.486714 -121.895517 333 33806ft 495kts
08-Jan-18 15:36 42.613511 -121.959874 333 33807ft 496kts
08-Jan-18 15:37 42.741900 -122.025335 332 33807ft 495kts
08-Jan-18 15:38 42.870181 -122.091023 332 33813ft 495kts
08-Jan-18 15:39 42.998138 -122.156821 332 33711ft 490kts
08-Jan-18 15:40 43.121630 -122.220613 332 32831ft 494kts
08-Jan-18 15:41 43.249341 -122.286824 332 31844ft 501kts
08-Jan-18 15:42 43.379314 -122.354575 332 30850ft 505kts
08-Jan-18 15:43 43.510476 -122.423261 333 29867ft 509kts
08-Jan-18 15:44 43.641434 -122.491973 334 28901ft 509kts
08-Jan-18 15:45 43.774109 -122.559783 334 27938ft 510kts
08-Jan-18 15:46 43.906456 -122.627654 334 26991ft 511kts
08-Jan-18 15:47 44.030717 -122.692003 333 26125ft 510kts
08-Jan-18 15:48 44.154536 -122.748328 352 25257ft 515kts
08-Jan-18 15:49 44.296143 -122.738610 1 24313ft 510kts
08-Jan-18 15:50 44.434921 -122.725037 1 23335ft 500kts
08-Jan-18 15:51 44.571854 -122.711505 2 21064ft 496kts
08-Jan-18 15:52 44.706163 -122.698023 2 18045ft 462kts
08-Jan-18 15:53 44.827496 -122.685823 2 15456ft 433kts
08-Jan-18 15:54 44.943546 -122.674136 2 12819ft 413kts
08-Jan-18 15:55 45.054291 -122.662896 2 10840ft 398kts
08-Jan-18 15:56 45.150914 -122.653057 2 10166ft 337kts
08-Jan-18 15:57 45.233943 -122.644877 357 9189ft 300kts
08-Jan-18 15:58 45.305704 -122.669996 19 8337ft 296kts
08-Jan-18 15:59 45.371917 -122.691130 297 7918ft 274kts
08-Jan-18 16:00 45.423423 -122.769891 315 6555ft 286kts
08-Jan-18 16:01 45.477235 -122.845018 315 4951ft 259kts
08-Jan-18 16:02 45.541963 -122.866841 354 4189ft 256kts
08-Jan-18 16:03 45.609504 -122.870563 18 2946ft 229kts
08-Jan-18 16:04 45.650030 -122.818562 87 2992ft 207kts
08-Jan-18 16:05 45.641651 -122.738051 117 1932ft 216kts
08-Jan-18 16:06 45.633142 -122.717915 123 1215ft 221kts
08-Jan-18 16:07 45.614331 -122.670746 114 678ft 167kts
08-Jan-18 16:08 45.595453 -122.622122 118 102ft 144kts
08-Jan-18 16:09 45.587822 -122.601283 90 37ft 0kts
08-Jan-18 16:10 45.588097 -122.599437 71 37ft 14kts
08-Jan-18 16:11 45.587942 -122.596814 30 37ft 4kts
08-Jan-18 16:12 45.588369 -122.596316 43 37ft 0kts
08-Jan-18 16:13 45.588376 -122.596305 43 37ft 0kts
08-Jan-18 16:14 45.588376 -122.596305 43 37ft 0kts
08-Jan-18 16:15 45.588376 -122.596305 43 37ft 0kts
08-Jan-18 16:16 45.588376 -122.596305 43 37ft 0kts
08-Jan-18 16:17 45.588376 -122.596305 43 37ft 0kts
08-Jan-18 16:18 45.588376 -122.596305 43 37ft 0kts
08-Jan-18 16:19 45.588376 -122.596305 43 37ft 0kts
08-Jan-18 16:20 45.588376 -122.596305 43 37ft 0kts
08-Jan-18 16:21 45.588376 -122.596305 43 37ft 0kts
08-Jan-18 16:22 45.588376 -122.596305 43 37ft 0kts
08-Jan-18 16:23 45.588376 -122.596305 43 37ft 0kts
08-Jan-18 16:24 45.588376 -122.596305 43 37ft 0kts

Navigation Log

Ident Type
Flight plan parsing failed, navigation log unavailable